Time;durP1;ratioP1;P1;durP2;ratioP2;P2;SDS_P1;SDS_P2;PMS_P1;PMS_P2;Temp;Humidity;BMP_temperature;BMP_pressure;BME280_temperature;BME280_humidity;BME280_pressure;Samples;Min_cycle;Max_cycle;Signal;HPM_P1;HPM_P2
2022/12/22 03:27:17;;;;;;;3.97;2.27;;;;;;;;;;5097976;28;20112;-79
2022/12/22 03:29:46;;;;;;;3.33;2.13;;;;;;;;;;5094117;28;20052;-79
2022/12/22 03:32:14;;;;;;;5.05;2.28;;;;;;;;;;5090571;28;20044;-76
2022/12/22 03:34:40;;;;;;;4.38;2.38;;;;;;;;;;5102277;28;20078;-80
2022/12/22 03:37:06;;;;;;;2.90;1.90;;;;;;;;;;5110599;28;20108;-80
2022/12/22 03:39:33;;;;;;;3.55;2.03;;;;;;;;;;5094250;28;20044;-79
2022/12/22 03:47:32;;;;;;;3.03;2.00;;;;;;;;;;5070666;28;20131;-78
2022/12/22 03:50:01;;;;;;;2.63;1.90;;;;;;;;;;5070511;28;20070;-79
2022/12/22 03:52:27;;;;;;;3.38;1.98;;;;;;;;;;5071154;28;20131;-78
2022/12/22 03:54:54;;;;;;;2.28;1.70;;;;;;;;;;5096158;28;20044;-79
2022/12/22 03:57:20;;;;;;;3.85;2.35;;;;;;;;;;5094500;28;20048;-78
2022/12/22 03:59:46;;;;;;;5.65;2.30;;;;;;;;;;5095089;28;20048;-78
2022/12/22 04:02:13;;;;;;;4.70;2.20;;;;;;;;;;5094653;28;20287;-78
2022/12/22 04:04:39;;;;;;;3.13;1.70;;;;;;;;;;5096321;28;20109;-79
2022/12/22 04:07:09;;;;;;;4.15;1.80;;;;;;;;;;5094136;28;20052;-81
2022/12/22 04:12:52;;;;;;;3.63;1.88;;;;;;;;;;5075144;28;20045;-78
2022/12/22 04:15:07;;;;;;;4.82;1.83;;;;;;;;;;5080447;28;20052;-78
2022/12/22 04:17:33;;;;;;;4.53;1.90;;;;;;;;;;5095108;28;20047;-79
2022/12/22 04:20:00;;;;;;;3.75;1.95;;;;;;;;;;5094876;28;20051;-79
2022/12/22 04:22:26;;;;;;;5.72;2.10;;;;;;;;;;5092911;28;20082;-77
2022/12/22 04:24:52;;;;;;;5.38;2.13;;;;;;;;;;5094591;28;20064;-79
2022/12/22 04:27:19;;;;;;;4.45;1.95;;;;;;;;;;5094375;28;20501;-78
2022/12/22 04:29:46;;;;;;;5.15;1.90;;;;;;;;;;5093673;28;20048;-78
2022/12/22 04:32:12;;;;;;;3.60;1.95;;;;;;;;;;5094237;28;20051;-78
2022/12/22 04:34:39;;;;;;;4.57;1.90;;;;;;;;;;5093321;28;20139;-79
2022/12/22 04:37:05;;;;;;;7.25;2.10;;;;;;;;;;5093014;28;20058;-80
2022/12/22 04:39:42;;;;;;;4.88;2.10;;;;;;;;;;5077531;28;20048;-80
2022/12/22 04:42:09;;;;;;;3.63;1.83;;;;;;;;;;5093641;28;20512;-79
2022/12/22 04:44:35;;;;;;;2.83;1.88;;;;;;;;;;5093754;28;20075;-79
2022/12/22 04:47:01;;;;;;;5.80;2.40;;;;;;;;;;5094249;28;20052;-79
2022/12/22 04:49:28;;;;;;;8.13;2.17;;;;;;;;;;5093965;28;20094;-77
2022/12/22 04:51:54;;;;;;;5.50;2.13;;;;;;;;;;5093479;28;20412;-80
2022/12/22 04:54:21;;;;;;;3.15;1.75;;;;;;;;;;5093343;28;20527;-80
2022/12/22 04:56:47;;;;;;;3.97;2.13;;;;;;;;;;5086036;28;20507;-80
2022/12/22 04:59:15;;;;;;;4.10;2.00;;;;;;;;;;5072627;28;20047;-77
2022/12/22 05:01:41;;;;;;;4.47;1.80;;;;;;;;;;5074251;28;20079;-80
2022/12/22 05:04:08;;;;;;;4.50;2.00;;;;;;;;;;5073206;28;20079;-79
2022/12/22 05:06:34;;;;;;;4.93;1.85;;;;;;;;;;5073506;28;20070;-80
2022/12/22 05:09:00;;;;;;;2.90;1.80;;;;;;;;;;5073520;28;20044;-79
2022/12/22 05:11:27;;;;;;;6.20;1.90;;;;;;;;;;5072704;28;20048;-80
2022/12/22 05:13:53;;;;;;;2.67;1.50;;;;;;;;;;5072102;28;20124;-79
2022/12/22 05:16:20;;;;;;;4.50;1.95;;;;;;;;;;5089276;28;20048;-80
2022/12/22 05:18:46;;;;;;;5.90;2.03;;;;;;;;;;5075823;28;20048;-79
2022/12/22 05:21:14;;;;;;;3.80;1.90;;;;;;;;;;5093340;28;20142;-79
2022/12/22 05:23:40;;;;;;;5.45;2.10;;;;;;;;;;5091768;28;20146;-82
2022/12/22 05:26:07;;;;;;;4.60;2.30;;;;;;;;;;5075186;28;20059;-79
2022/12/22 05:28:33;;;;;;;4.00;2.05;;;;;;;;;;5092102;28;20121;-80
2022/12/22 05:31:03;;;;;;;6.03;2.10;;;;;;;;;;5092315;28;20050;-80
2022/12/22 05:33:30;;;;;;;3.42;1.90;;;;;;;;;;5057521;28;20056;-79
2022/12/22 05:35:59;;;;;;;3.97;2.20;;;;;;;;;;5073229;28;20102;-80
2022/12/22 05:38:25;;;;;;;2.67;1.70;;;;;;;;;;5073625;28;20051;-79
2022/12/22 05:40:51;;;;;;;2.78;1.70;;;;;;;;;;5073566;28;20048;-80
2022/12/22 05:43:25;;;;;;;3.78;1.80;;;;;;;;;;5071242;28;20045;-79
2022/12/22 05:45:52;;;;;;;3.13;1.85;;;;;;;;;;5072609;28;20059;-79
2022/12/22 05:48:18;;;;;;;2.75;1.60;;;;;;;;;;5074104;28;20049;-80
2022/12/22 05:50:53;;;;;;;2.90;1.88;;;;;;;;;;5072424;28;20425;-78
2022/12/22 05:53:19;;;;;;;3.85;2.15;;;;;;;;;;5076398;28;20064;-79
2022/12/22 05:55:46;;;;;;;3.20;1.75;;;;;;;;;;5079920;28;20238;-79
2022/12/22 05:58:12;;;;;;;4.20;1.75;;;;;;;;;;5088522;28;20224;-79
2022/12/22 06:00:39;;;;;;;6.40;1.80;;;;;;;;;;5086929;28;20055;-80
2022/12/22 06:03:05;;;;;;;4.10;1.88;;;;;;;;;;5089360;28;20108;-79
2022/12/22 06:05:32;;;;;;;2.38;1.63;;;;;;;;;;5085162;28;20052;-79
2022/12/22 06:07:59;;;;;;;3.53;1.73;;;;;;;;;;5081158;28;20050;-78
2022/12/22 06:10:26;;;;;;;10.65;2.03;;;;;;;;;;5087108;28;20401;-78
2022/12/22 06:12:52;;;;;;;2.75;1.73;;;;;;;;;;5068784;28;20053;-79
2022/12/22 06:15:18;;;;;;;3.67;1.98;;;;;;;;;;5068039;28;20052;-79
2022/12/22 06:17:45;;;;;;;2.72;1.60;;;;;;;;;;5071015;28;20084;-78
2022/12/22 06:20:12;;;;;;;4.43;1.63;;;;;;;;;;5071357;28;20154;-81
2022/12/22 06:22:39;;;;;;;2.90;1.60;;;;;;;;;;5069615;28;20053;-79
2022/12/22 06:25:05;;;;;;;2.45;1.42;;;;;;;;;;5072222;28;20074;-77
2022/12/22 06:27:34;;;;;;;5.68;1.50;;;;;;;;;;5071379;28;20120;-81
2022/12/22 06:30:00;;;;;;;4.85;1.60;;;;;;;;;;5071859;28;20393;-79
2022/12/22 06:32:26;;;;;;;5.50;1.65;;;;;;;;;;5070056;28;20044;-78
2022/12/22 06:34:53;;;;;;;2.58;1.30;;;;;;;;;;5070615;28;20152;-78
2022/12/22 06:37:19;;;;;;;2.15;1.50;;;;;;;;;;5070555;28;20101;-78
2022/12/22 06:39:45;;;;;;;3.38;1.40;;;;;;;;;;5071248;28;20055;-79
2022/12/22 06:44:57;;;;;;;3.00;1.58;;;;;;;;;;5071415;28;20516;-80
2022/12/22 06:47:23;;;;;;;3.17;1.58;;;;;;;;;;5071742;28;20072;-79
2022/12/22 06:49:51;;;;;;;2.55;1.50;;;;;;;;;;5072170;28;20056;-79
2022/12/22 06:52:17;;;;;;;2.97;1.40;;;;;;;;;;5070754;28;20224;-77
2022/12/22 06:54:43;;;;;;;1.73;1.23;;;;;;;;;;5071983;28;20048;-79
2022/12/22 06:57:10;;;;;;;2.22;1.23;;;;;;;;;;5071926;28;20143;-79
2022/12/22 06:59:36;;;;;;;3.03;1.13;;;;;;;;;;5070315;28;20052;-78
2022/12/22 07:02:03;;;;;;;1.90;1.38;;;;;;;;;;5054438;28;20060;-79
2022/12/22 07:04:32;;;;;;;3.13;1.10;;;;;;;;;;5072109;28;20052;-78
2022/12/22 07:07:00;;;;;;;1.60;1.20;;;;;;;;;;5053511;28;20053;-78
2022/12/22 07:09:27;;;;;;;2.60;1.35;;;;;;;;;;5071557;28;20121;-79
2022/12/22 07:11:53;;;;;;;2.30;1.50;;;;;;;;;;5070295;28;20050;-77
2022/12/22 07:14:20;;;;;;;1.90;1.30;;;;;;;;;;5069510;28;20048;-79
2022/12/22 07:16:46;;;;;;;4.90;1.50;;;;;;;;;;5070948;28;20048;-80
2022/12/22 07:19:13;;;;;;;2.13;1.13;;;;;;;;;;5072049;28;20045;-79
2022/12/22 07:21:39;;;;;;;2.28;1.33;;;;;;;;;;5070764;28;20424;-77
2022/12/22 07:24:06;;;;;;;1.88;1.25;;;;;;;;;;5071602;28;20114;-76
2022/12/22 07:26:32;;;;;;;3.42;1.65;;;;;;;;;;5070981;28;20059;-79
2022/12/22 07:28:58;;;;;;;2.60;1.40;;;;;;;;;;5053127;28;20056;-79
2022/12/22 07:31:25;;;;;;;3.00;1.50;;;;;;;;;;5070984;28;20049;-80
2022/12/22 07:33:51;;;;;;;3.17;2.33;;;;;;;;;;5071148;28;20477;-79
2022/12/22 07:36:18;;;;;;;4.35;1.55;;;;;;;;;;5071636;28;20540;-80
2022/12/22 07:38:46;;;;;;;4.07;1.70;;;;;;;;;;5071555;28;20048;-78
2022/12/22 07:43:58;;;;;;;;;;;;;;;;;;5075170;28;20063;-79
2022/12/22 07:46:26;;;;;;;3.88;1.50;;;;;;;;;;5069754;28;19921;-79
2022/12/22 07:51:39;;;;;;;3.60;1.60;;;;;;;;;;5070422;28;20053;-79
2022/12/22 07:54:06;;;;;;;5.82;1.80;;;;;;;;;;5070273;28;20052;-79
2022/12/22 07:56:33;;;;;;;7.25;1.60;;;;;;;;;;5071129;28;20068;-80
2022/12/22 07:58:59;;;;;;;3.25;1.60;;;;;;;;;;5071139;28;20052;-80
2022/12/22 08:01:26;;;;;;;5.95;1.42;;;;;;;;;;5069908;28;20044;-78
2022/12/22 08:03:53;;;;;;;3.95;1.42;;;;;;;;;;5070894;28;20467;-78
2022/12/22 08:06:19;;;;;;;6.93;1.88;;;;;;;;;;5072029;28;20059;-79
2022/12/22 08:08:46;;;;;;;4.68;1.65;;;;;;;;;;5053902;28;20045;-79
2022/12/22 08:11:12;;;;;;;3.70;1.52;;;;;;;;;;5053871;28;20044;-78
2022/12/22 08:13:39;;;;;;;2.97;1.30;;;;;;;;;;5069191;28;20044;-77
2022/12/22 08:16:06;;;;;;;4.03;1.30;;;;;;;;;;5070299;28;20049;-78
2022/12/22 08:18:33;;;;;;;2.92;1.13;;;;;;;;;;5073380;28;20056;-77
2022/12/22 08:21:00;;;;;;;5.47;1.15;;;;;;;;;;5073181;28;20047;-78
2022/12/22 08:23:26;;;;;;;2.55;1.13;;;;;;;;;;5068632;28;20047;-79
2022/12/22 08:26:03;;;;;;;3.90;1.23;;;;;;;;;;5071688;28;20055;-79
2022/12/22 08:28:31;;;;;;;3.88;1.15;;;;;;;;;;5076267;28;20060;-79
2022/12/22 08:30:59;;;;;;;4.97;1.13;;;;;;;;;;5075395;28;20048;-79
2022/12/22 08:33:25;;;;;;;2.72;1.10;;;;;;;;;;5069791;28;20055;-79
2022/12/22 08:35:53;;;;;;;3.90;1.00;;;;;;;;;;5071928;28;20044;-77
2022/12/22 08:38:19;;;;;;;3.05;1.15;;;;;;;;;;5087096;28;20048;-78
2022/12/22 08:40:46;;;;;;;3.75;1.10;;;;;;;;;;5084247;28;20074;-78
2022/12/22 08:43:13;;;;;;;2.95;1.05;;;;;;;;;;5072266;28;20048;-79
2022/12/22 08:45:41;;;;;;;2.42;1.20;;;;;;;;;;5073370;28;20075;-79
2022/12/22 08:48:10;;;;;;;2.95;1.00;;;;;;;;;;5074046;28;20053;-78
2022/12/22 08:50:36;;;;;;;4.10;1.17;;;;;;;;;;5074646;28;20056;-77
2022/12/22 08:53:04;;;;;;;5.28;1.20;;;;;;;;;;5072269;28;20049;-79
2022/12/22 08:55:30;;;;;;;3.80;1.10;;;;;;;;;;5073597;28;20052;-78
2022/12/22 08:57:56;;;;;;;4.25;1.00;;;;;;;;;;5072954;28;20056;-79
2022/12/22 09:00:23;;;;;;;1.20;0.80;;;;;;;;;;5073170;28;20127;-79
2022/12/22 09:02:49;;;;;;;2.28;1.20;;;;;;;;;;5054588;28;20056;-78
2022/12/22 09:05:16;;;;;;;2.30;0.98;;;;;;;;;;5073350;28;20048;-79
2022/12/22 09:07:45;;;;;;;2.13;1.13;;;;;;;;;;5072900;28;20059;-79
2022/12/22 09:10:12;;;;;;;2.25;1.08;;;;;;;;;;5065472;28;20396;-80
2022/12/22 09:12:38;;;;;;;2.22;1.20;;;;;;;;;;5071563;28;20053;-79
2022/12/22 09:15:07;;;;;;;1.98;1.10;;;;;;;;;;5072643;28;20044;-78
2022/12/22 09:17:35;;;;;;;2.28;1.40;;;;;;;;;;5073940;28;20051;-80
2022/12/22 09:20:02;;;;;;;3.20;1.23;;;;;;;;;;5073767;28;20124;-80
2022/12/22 09:22:28;;;;;;;3.72;1.10;;;;;;;;;;5072274;28;20167;-80
2022/12/22 09:24:55;;;;;;;1.52;0.85;;;;;;;;;;5074177;28;20048;-79
2022/12/22 09:27:21;;;;;;;1.90;0.98;;;;;;;;;;5072875;28;20048;-80
2022/12/22 09:29:47;;;;;;;2.42;1.02;;;;;;;;;;5072967;28;20071;-78
2022/12/22 09:32:14;;;;;;;2.15;1.00;;;;;;;;;;5072015;28;20044;-77
2022/12/22 09:34:40;;;;;;;2.03;1.17;;;;;;;;;;5073770;28;20497;-78
2022/12/22 09:37:07;;;;;;;2.65;0.93;;;;;;;;;;5072811;28;20049;-79
2022/12/22 09:39:33;;;;;;;1.77;0.90;;;;;;;;;;5055791;28;20040;-79
2022/12/22 09:41:59;;;;;;;0.80;0.60;;;;;;;;;;5071379;28;20052;-79
2022/12/22 09:44:32;;;;;;;0.85;0.73;;;;;;;;;;5072939;28;20063;-79
2022/12/22 09:46:59;;;;;;;1.38;0.60;;;;;;;;;;5075940;28;20052;-80
2022/12/22 09:49:26;;;;;;;1.67;0.70;;;;;;;;;;5073459;28;20063;-78
2022/12/22 09:52:01;;;;;;;1.00;0.63;;;;;;;;;;5072838;28;20051;-79
2022/12/22 09:54:28;;;;;;;1.48;0.70;;;;;;;;;;5071813;28;20055;-79
2022/12/22 09:56:54;;;;;;;1.70;0.70;;;;;;;;;;5072813;28;20040;-80
2022/12/22 09:59:21;;;;;;;1.73;0.73;;;;;;;;;;5075296;28;20055;-79
2022/12/22 10:01:54;;;;;;;1.17;0.57;;;;;;;;;;5054939;28;20063;-80
2022/12/22 10:04:39;;;;;;;1.02;0.50;;;;;;;;;;5073307;28;20068;-79
2022/12/22 10:07:09;;;;;;;0.60;0.45;;;;;;;;;;5069104;28;20091;-79
2022/12/22 10:09:36;;;;;;;0.73;0.45;;;;;;;;;;5071406;28;20386;-78
2022/12/22 10:12:24;;;;;;;3.00;0.70;;;;;;;;;;5070920;28;20164;-76
2022/12/22 10:14:52;;;;;;;2.15;0.60;;;;;;;;;;5070913;28;20044;-78
2022/12/22 10:17:18;;;;;;;0.90;0.50;;;;;;;;;;5055439;28;20051;-81
2022/12/22 10:19:45;;;;;;;1.40;0.40;;;;;;;;;;5072861;28;20083;-79
2022/12/22 10:22:27;;;;;;;1.35;0.50;;;;;;;;;;5070294;28;20424;-79
2022/12/22 10:24:53;;;;;;;4.45;0.65;;;;;;;;;;5072504;28;20060;-81
2022/12/22 10:27:21;;;;;;;2.38;0.57;;;;;;;;;;5073538;28;20052;-82
2022/12/22 10:30:14;;;;;;;1.05;0.40;;;;;;;;;;5073753;28;20049;-81
2022/12/22 10:32:40;;;;;;;1.10;0.50;;;;;;;;;;5049222;28;20048;-81
2022/12/22 10:35:07;;;;;;;1.52;0.68;;;;;;;;;;5069278;28;20044;-79
2022/12/22 10:37:35;;;;;;;1.63;0.90;;;;;;;;;;5068431;28;20055;-80
2022/12/22 10:40:20;;;;;;;2.97;0.80;;;;;;;;;;5070090;28;20147;-80
2022/12/22 10:42:52;;;;;;;2.35;0.90;;;;;;;;;;5068389;28;20118;-81
2022/12/22 10:45:20;;;;;;;4.63;1.00;;;;;;;;;;5070006;28;20136;-79
2022/12/22 10:47:51;;;;;;;1.67;0.90;;;;;;;;;;5053251;28;20049;-79
2022/12/22 10:50:18;;;;;;;2.65;0.60;;;;;;;;;;5053692;28;20056;-80
2022/12/22 10:52:52;;;;;;;3.25;0.60;;;;;;;;;;5068938;28;20477;-79
2022/12/22 10:55:24;;;;;;;0.95;0.57;;;;;;;;;;5071248;28;20437;-80
2022/12/22 10:57:51;;;;;;;2.05;0.40;;;;;;;;;;5070891;28;20048;-78
2022/12/22 11:00:21;;;;;;;2.88;0.68;;;;;;;;;;5070672;28;20059;-80
2022/12/22 11:02:51;;;;;;;1.83;0.63;;;;;;;;;;5070044;28;20058;-81
2022/12/22 11:05:18;;;;;;;1.08;0.40;;;;;;;;;;5073293;28;20053;-80
2022/12/22 11:07:48;;;;;;;2.55;0.45;;;;;;;;;;5066968;28;20316;-80
2022/12/22 11:10:18;;;;;;;3.95;0.70;;;;;;;;;;5088091;28;20048;-80
2022/12/22 11:13:03;;;;;;;2.70;0.70;;;;;;;;;;5075656;28;20216;-79
2022/12/22 11:15:32;;;;;;;2.40;0.60;;;;;;;;;;5079183;28;20095;-79
2022/12/22 11:18:19;;;;;;;1.67;0.60;;;;;;;;;;5061646;28;20420;-80
2022/12/22 11:20:48;;;;;;;4.05;0.80;;;;;;;;;;5064443;28;20058;-80
2022/12/22 11:23:35;;;;;;;2.75;0.68;;;;;;;;;;5059010;28;20045;-81
2022/12/22 11:26:11;;;;;;;1.90;0.60;;;;;;;;;;5077706;28;20124;-80
2022/12/22 11:28:54;;;;;;;3.28;0.80;;;;;;;;;;5078598;28;20052;-80
2022/12/22 11:31:30;;;;;;;2.40;0.73;;;;;;;;;;5060231;28;20055;-79
2022/12/22 11:33:56;;;;;;;;;;;;;;;;;;5077574;28;20059;-80
2022/12/22 11:36:32;;;;;;;2.35;0.82;;;;;;;;;;5074554;28;19927;-78
2022/12/22 11:38:58;;;;;;;;;;;;;;;;;;5070219;28;20299;-78
2022/12/22 11:41:24;;;;;;;;;;;;;;;;;;5067594;28;19927;-78
2022/12/22 11:43:51;;;;;;;3.22;0.75;;;;;;;;;;5066885;28;19931;-80
2022/12/22 11:46:17;;;;;;;2.85;0.73;;;;;;;;;;5050069;28;20048;-80
2022/12/22 11:49:02;;;;;;;1.90;0.75;;;;;;;;;;5066715;28;20148;-79
2022/12/22 11:51:32;;;;;;;2.55;0.60;;;;;;;;;;5050429;28;20360;-81
2022/12/22 11:54:17;;;;;;;2.53;0.70;;;;;;;;;;5070180;28;20045;-81
2022/12/22 11:56:46;;;;;;;2.97;0.97;;;;;;;;;;5067464;28;20044;-79
2022/12/22 11:59:21;;;;;;;3.75;1.20;;;;;;;;;;5065460;28;20052;-79
2022/12/22 12:01:48;;;;;;;;;;;;;;;;;;5049380;28;20045;-78
2022/12/22 12:04:14;;;;;;;2.85;0.63;;;;;;;;;;5068721;28;20461;-81
2022/12/22 12:06:50;;;;;;;2.85;0.60;;;;;;;;;;5068815;28;20048;-78
2022/12/22 12:09:36;;;;;;;3.55;0.90;;;;;;;;;;5068793;28;20497;-79
2022/12/22 12:12:15;;;;;;;3.55;0.77;;;;;;;;;;5027629;28;20068;-80
2022/12/22 12:14:53;;;;;;;3.50;0.63;;;;;;;;;;5067882;28;20041;-82
2022/12/22 12:17:39;;;;;;;3.88;0.70;;;;;;;;;;5083594;28;20048;-81
2022/12/22 12:20:12;;;;;;;2.22;0.80;;;;;;;;;;5088680;28;20067;-80
2022/12/22 12:23:02;;;;;;;11.52;1.15;;;;;;;;;;5086470;28;20111;-79
2022/12/22 12:25:36;;;;;;;3.83;0.80;;;;;;;;;;5088953;28;20045;-80
2022/12/22 12:28:19;;;;;;;3.83;0.68;;;;;;;;;;5074804;28;20041;-80
2022/12/22 12:30:56;;;;;;;3.60;0.60;;;;;;;;;;5072315;28;20041;-79
2022/12/22 12:33:35;;;;;;;3.80;0.80;;;;;;;;;;5070760;28;20048;-78
2022/12/22 12:36:04;;;;;;;5.35;0.82;;;;;;;;;;5070980;28;20531;-78
2022/12/22 12:38:37;;;;;;;3.00;0.70;;;;;;;;;;5073024;28;20040;-79
2022/12/22 12:41:32;;;;;;;1.58;0.80;;;;;;;;;;5070514;28;20044;-78
2022/12/22 12:43:59;;;;;;;4.43;0.80;;;;;;;;;;5068859;28;20072;-79
2022/12/22 12:46:44;;;;;;;4.88;0.93;;;;;;;;;;5071781;28;20055;-77
2022/12/22 12:49:30;;;;;;;2.53;0.60;;;;;;;;;;5067813;28;20101;-79
2022/12/22 12:51:56;;;;;;;4.18;0.73;;;;;;;;;;5069534;28;20055;-79
2022/12/22 12:54:29;;;;;;;3.90;0.77;;;;;;;;;;5072370;28;20053;-79
2022/12/22 12:56:58;;;;;;;3.17;0.73;;;;;;;;;;5069624;28;20586;-79
2022/12/22 12:59:40;;;;;;;2.90;0.70;;;;;;;;;;5073433;28;20049;-80
2022/12/22 13:02:25;;;;;;;2.72;0.77;;;;;;;;;;5072228;28;20087;-78
2022/12/22 13:05:01;;;;;;;1.42;0.68;;;;;;;;;;5073054;28;20040;-80
2022/12/22 13:07:27;;;;;;;;;;;;;;;;;;5073945;28;20044;-78
2022/12/22 13:10:07;;;;;;;2.33;0.60;;;;;;;;;;5073420;28;20014;-78
2022/12/22 13:12:37;;;;;;;3.05;0.68;;;;;;;;;;5071522;28;20402;-78
2022/12/22 13:15:03;;;;;;;5.68;0.80;;;;;;;;;;5077399;28;20314;-78
2022/12/22 13:17:33;;;;;;;3.65;0.90;;;;;;;;;;5092330;28;20482;-77
2022/12/22 13:20:00;;;;;;;4.68;0.85;;;;;;;;;;5074267;28;20044;-80
2022/12/22 13:22:27;;;;;;;3.03;0.85;;;;;;;;;;5090946;28;20044;-77
2022/12/22 13:24:54;;;;;;;2.33;0.70;;;;;;;;;;5094375;28;20044;-78
2022/12/22 13:27:21;;;;;;;5.03;0.95;;;;;;;;;;5092615;28;20047;-79
2022/12/22 13:29:48;;;;;;;5.32;0.82;;;;;;;;;;5093370;28;20040;-79
2022/12/22 13:32:28;;;;;;;2.97;0.70;;;;;;;;;;5092242;28;20290;-75
2022/12/22 13:35:05;;;;;;;3.85;0.70;;;;;;;;;;5095519;28;20044;-79
2022/12/22 13:37:52;;;;;;;1.80;0.73;;;;;;;;;;5101372;28;20114;-79
2022/12/22 13:40:23;;;;;;;2.85;0.73;;;;;;;;;;5098680;28;20048;-78
2022/12/22 13:42:50;;;;;;;1.38;0.63;;;;;;;;;;5091121;28;20245;-79
2022/12/22 13:45:19;;;;;;;2.83;0.70;;;;;;;;;;5093594;28;20079;-78
2022/12/22 13:47:46;;;;;;;1.27;0.57;;;;;;;;;;5095382;28;20047;-79
2022/12/22 13:50:20;;;;;;;3.00;0.63;;;;;;;;;;5093900;28;20431;-78
2022/12/22 13:52:47;;;;;;;2.35;0.70;;;;;;;;;;5072525;28;20066;-77
2022/12/22 13:55:40;;;;;;;6.25;1.02;;;;;;;;;;5093341;28;20044;-78
2022/12/22 13:58:14;;;;;;;2.75;0.55;;;;;;;;;;5088590;28;20583;-80
2022/12/22 14:00:40;;;;;;;1.08;0.65;;;;;;;;;;5092651;28;20496;-78
2022/12/22 14:03:17;;;;;;;3.22;0.60;;;;;;;;;;5089098;28;20051;-78
2022/12/22 14:06:20;;;;;;;1.17;0.50;;;;;;;;;;5094201;28;20326;-78
2022/12/22 14:08:46;;;;;;;3.50;0.70;;;;;;;;;;5092231;28;20401;-78
2022/12/22 14:11:13;;;;;;;3.28;0.70;;;;;;;;;;5073790;28;20056;-79
2022/12/22 14:13:39;;;;;;;2.67;1.02;;;;;;;;;;5071431;28;20061;-78
2022/12/22 14:16:06;;;;;;;2.60;0.63;;;;;;;;;;5071142;28;20045;-78
2022/12/22 14:18:33;;;;;;;2.63;0.73;;;;;;;;;;5073613;28;20371;-80
2022/12/22 14:20:59;;;;;;;2.45;0.60;;;;;;;;;;5072747;28;20044;-79
2022/12/22 14:23:27;;;;;;;5.13;0.88;;;;;;;;;;5072090;28;20048;-78
2022/12/22 14:25:54;;;;;;;3.90;0.73;;;;;;;;;;5072378;28;20049;-79
2022/12/22 14:28:32;;;;;;;2.08;0.60;;;;;;;;;;5071575;28;20059;-78
2022/12/22 14:30:59;;;;;;;2.33;0.60;;;;;;;;;;5072055;28;20411;-79
2022/12/22 14:33:31;;;;;;;4.55;0.63;;;;;;;;;;5073025;28;20080;-78
2022/12/22 14:36:16;;;;;;;5.40;1.05;;;;;;;;;;5074548;28;20060;-80
2022/12/22 14:38:44;;;;;;;2.22;0.63;;;;;;;;;;5061757;28;20044;-80
2022/12/22 14:41:40;;;;;;;2.38;0.98;;;;;;;;;;5079382;28;20045;-81
2022/12/22 14:43:58;;;;;;;1.20;0.57;;;;;;;;;;5074685;28;20063;-78
2022/12/22 14:46:25;;;;;;;2.72;0.70;;;;;;;;;;5076185;28;20135;-80
2022/12/22 14:48:51;;;;;;;1.17;0.50;;;;;;;;;;5075504;28;20052;-79
2022/12/22 14:51:18;;;;;;;2.17;0.88;;;;;;;;;;5057005;28;20045;-80
2022/12/22 14:53:51;;;;;;;3.65;0.60;;;;;;;;;;5073488;28;20127;-79
2022/12/22 14:56:18;;;;;;;2.67;0.90;;;;;;;;;;5074488;28;20072;-79
2022/12/22 14:58:46;;;;;;;1.95;0.70;;;;;;;;;;5074623;28;20056;-78
2022/12/22 15:01:21;;;;;;;2.33;0.90;;;;;;;;;;5073639;28;20084;-79
2022/12/22 15:03:48;;;;;;;;;;;;;;;;;;5073860;28;20053;-79
2022/12/22 15:06:23;;;;;;;3.33;0.93;;;;;;;;;;5072946;28;19920;-78
2022/12/22 15:08:53;;;;;;;1.42;0.77;;;;;;;;;;5062073;28;20052;-78
2022/12/22 15:11:21;;;;;;;1.25;0.85;;;;;;;;;;5070380;28;20055;-78
2022/12/22 15:13:48;;;;;;;1.40;0.93;;;;;;;;;;5071315;28;20050;-79
2022/12/22 15:16:16;;;;;;;4.88;1.40;;;;;;;;;;5089133;28;20044;-79
2022/12/22 15:18:43;;;;;;;1.52;1.17;;;;;;;;;;5076206;28;20561;-78
2022/12/22 15:21:11;;;;;;;1.80;1.10;;;;;;;;;;5094871;28;20044;-78
2022/12/22 15:23:37;;;;;;;3.58;1.38;;;;;;;;;;5074358;28;20421;-78
2022/12/22 15:26:05;;;;;;;2.28;1.35;;;;;;;;;;5094197;28;20047;-79
2022/12/22 15:28:31;;;;;;;2.28;1.60;;;;;;;;;;5092504;28;20052;-78
2022/12/22 15:30:58;;;;;;;2.60;1.80;;;;;;;;;;5093478;28;20127;-78
2022/12/22 15:33:25;;;;;;;3.08;1.90;;;;;;;;;;5075069;28;20202;-79
2022/12/22 15:35:52;;;;;;;2.35;1.95;;;;;;;;;;5094680;28;20522;-78
2022/12/22 15:38:19;;;;;;;3.72;2.50;;;;;;;;;;5075604;28;20047;-79
2022/12/22 15:40:46;;;;;;;4.93;3.20;;;;;;;;;;5093176;28;20044;-79
2022/12/22 15:43:13;;;;;;;4.30;3.20;;;;;;;;;;5091038;28;20074;-78
2022/12/22 15:46:00;;;;;;;5.82;3.45;;;;;;;;;;5090855;28;20048;-78
2022/12/22 15:48:28;;;;;;;6.55;3.58;;;;;;;;;;5091122;28;20048;-78
2022/12/22 15:50:55;;;;;;;6.28;4.28;;;;;;;;;;5091167;28;20101;-77
2022/12/22 15:53:21;;;;;;;5.97;4.15;;;;;;;;;;5092016;28;20048;-78
2022/12/22 15:55:49;;;;;;;6.40;4.70;;;;;;;;;;5097448;28;20034;-78
2022/12/22 15:58:18;;;;;;;6.85;4.78;;;;;;;;;;5090267;28;20045;-77
2022/12/22 16:00:45;;;;;;;7.00;5.18;;;;;;;;;;5074450;28;20047;-78
2022/12/22 16:03:12;;;;;;;7.63;5.25;;;;;;;;;;5074510;28;20124;-79
2022/12/22 16:05:40;;;;;;;7.50;5.35;;;;;;;;;;5056851;28;20064;-79
2022/12/22 16:08:13;;;;;;;8.00;5.10;;;;;;;;;;5083737;28;20429;-79
2022/12/22 16:10:44;;;;;;;7.43;4.70;;;;;;;;;;5092329;28;20051;-79
2022/12/22 16:13:11;;;;;;;8.50;5.63;;;;;;;;;;5074232;28;20044;-79
2022/12/22 16:15:38;;;;;;;10.07;5.28;;;;;;;;;;5088919;28;20048;-79
2022/12/22 16:18:05;;;;;;;10.45;5.70;;;;;;;;;;5115144;28;20052;-80
2022/12/22 16:20:36;;;;;;;7.85;5.53;;;;;;;;;;5112510;28;20143;-80
2022/12/22 16:23:04;;;;;;;8.88;5.88;;;;;;;;;;5086067;28;20120;-78
2022/12/22 16:25:32;;;;;;;9.02;5.90;;;;;;;;;;5095766;28;20048;-78
2022/12/22 16:27:59;;;;;;;9.00;5.72;;;;;;;;;;5075988;28;20051;-78
2022/12/22 16:30:28;;;;;;;8.75;5.68;;;;;;;;;;5094166;28;20075;-78
2022/12/22 16:32:54;;;;;;;8.63;5.65;;;;;;;;;;5094479;28;20048;-79
2022/12/22 16:35:27;;;;;;;11.27;6.20;;;;;;;;;;5095650;28;20062;-79
2022/12/22 16:37:55;;;;;;;10.40;6.57;;;;;;;;;;5069274;28;20044;-78
2022/12/22 16:40:22;;;;;;;10.15;6.10;;;;;;;;;;5058340;28;20063;-79
2022/12/22 16:42:50;;;;;;;10.98;6.03;;;;;;;;;;5073851;28;20067;-79
2022/12/22 16:45:34;;;;;;;9.32;5.97;;;;;;;;;;5076132;28;20086;-80
2022/12/22 16:48:04;;;;;;;9.70;6.35;;;;;;;;;;5076661;28;20074;-79
2022/12/22 16:50:31;;;;;;;9.00;6.18;;;;;;;;;;5077094;28;20057;-79
2022/12/22 16:53:02;;;;;;;9.93;6.13;;;;;;;;;;5075157;28;20052;-79
2022/12/22 16:55:29;;;;;;;9.00;6.18;;;;;;;;;;5056693;28;20167;-78
2022/12/22 16:57:56;;;;;;;10.52;5.95;;;;;;;;;;5073592;28;20045;-80
2022/12/22 17:00:27;;;;;;;10.55;6.43;;;;;;;;;;5075300;28;20040;-78
2022/12/22 17:02:54;;;;;;;10.05;5.80;;;;;;;;;;5072619;28;20051;-78
2022/12/22 17:05:38;;;;;;;9.65;6.32;;;;;;;;;;5072042;28;20469;-78
2022/12/22 17:08:30;;;;;;;8.57;5.70;;;;;;;;;;5072157;28;20429;-80
2022/12/22 17:10:57;;;;;;;8.43;5.47;;;;;;;;;;5072307;28;20059;-78
2022/12/22 17:13:34;;;;;;;8.25;5.90;;;;;;;;;;5071932;28;20060;-78
2022/12/22 17:16:03;;;;;;;7.90;5.53;;;;;;;;;;5073068;28;20044;-79
2022/12/22 17:18:30;;;;;;;8.70;5.32;;;;;;;;;;5074014;28;20112;-78
2022/12/22 17:20:58;;;;;;;9.20;5.50;;;;;;;;;;5073502;28;20119;-78
2022/12/22 17:23:36;;;;;;;7.57;5.10;;;;;;;;;;5053217;28;20119;-78
2022/12/22 17:26:05;;;;;;;8.30;5.68;;;;;;;;;;5054089;28;20067;-78
2022/12/22 17:28:32;;;;;;;8.65;5.40;;;;;;;;;;5054552;28;20064;-78
2022/12/22 17:30:58;;;;;;;8.60;5.63;;;;;;;;;;5072619;28;20048;-78
2022/12/22 17:33:25;;;;;;;8.30;5.18;;;;;;;;;;5073446;28;20052;-78
2022/12/22 17:35:52;;;;;;;9.93;6.00;;;;;;;;;;5072353;28;20048;-79
2022/12/22 17:38:19;;;;;;;8.95;5.40;;;;;;;;;;5056236;28;20160;-79
2022/12/22 17:40:46;;;;;;;10.45;5.68;;;;;;;;;;5064106;28;20040;-77
2022/12/22 17:43:13;;;;;;;7.80;5.13;;;;;;;;;;5071439;28;20083;-79
2022/12/22 17:45:40;;;;;;;7.75;5.15;;;;;;;;;;5074730;28;20055;-77
2022/12/22 17:48:07;;;;;;;9.15;5.75;;;;;;;;;;5072756;28;20711;-78
2022/12/22 17:50:33;;;;;;;8.75;5.38;;;;;;;;;;5072565;28;20139;-78
2022/12/22 17:53:00;;;;;;;10.15;6.07;;;;;;;;;;5072144;28;20557;-77
2022/12/22 17:55:28;;;;;;;9.13;5.95;;;;;;;;;;5073988;28;20048;-78
2022/12/22 17:58:15;;;;;;;8.65;5.95;;;;;;;;;;5056336;28;20071;-79
2022/12/22 18:00:42;;;;;;;8.65;5.97;;;;;;;;;;5072436;28;20170;-79
2022/12/22 18:03:12;;;;;;;10.38;6.25;;;;;;;;;;5072202;28;20051;-78
2022/12/22 18:05:44;;;;;;;9.98;6.22;;;;;;;;;;5054942;28;20048;-78
2022/12/22 18:08:12;;;;;;;12.05;6.50;;;;;;;;;;5053368;28;20052;-79
2022/12/22 18:10:39;;;;;;;11.48;6.50;;;;;;;;;;5072355;28;20432;-79
2022/12/22 18:13:12;;;;;;;13.20;7.22;;;;;;;;;;5070718;28;20057;-79
2022/12/22 18:15:39;;;;;;;11.45;6.85;;;;;;;;;;5081362;28;20412;-79
2022/12/22 18:18:12;;;;;;;16.55;9.30;;;;;;;;;;5073085;28;20492;-79
2022/12/22 18:20:39;;;;;;;18.40;9.27;;;;;;;;;;5092103;28;20070;-80
2022/12/22 18:23:10;;;;;;;15.48;7.95;;;;;;;;;;5089381;28;20051;-79
2022/12/22 18:25:37;;;;;;;16.83;8.65;;;;;;;;;;5090461;28;20090;-79
2022/12/22 18:28:03;;;;;;;16.08;8.18;;;;;;;;;;5081884;28;20064;-80
2022/12/22 18:30:31;;;;;;;13.35;7.63;;;;;;;;;;5066841;28;20528;-80
2022/12/22 18:32:57;;;;;;;14.75;7.32;;;;;;;;;;5069420;28;20048;-81
2022/12/22 18:35:26;;;;;;;10.32;6.85;;;;;;;;;;5076080;28;20044;-80
2022/12/22 18:37:54;;;;;;;11.57;6.88;;;;;;;;;;5083719;28;20435;-79
2022/12/22 18:40:22;;;;;;;14.27;7.00;;;;;;;;;;5075299;28;20052;-79